createdAt,value
2018-09-19T00:02:23.698Z,21.70
2018-09-19T00:04:51.280Z,21.64
2018-09-19T00:07:19.627Z,21.88
2018-09-19T00:09:47.162Z,21.94
2018-09-19T00:12:15.850Z,21.82
2018-09-19T00:14:43.375Z,21.70
2018-09-19T00:17:10.947Z,21.63
2018-09-19T00:19:38.563Z,21.37
2018-09-19T00:22:06.156Z,21.49
2018-09-19T00:24:33.738Z,21.70
2018-09-19T00:27:01.293Z,21.48
2018-09-19T00:29:28.813Z,21.43
2018-09-19T00:31:56.377Z,21.44
2018-09-19T00:34:23.906Z,21.66
2018-09-19T00:36:51.554Z,21.50
2018-09-19T00:39:20.026Z,21.37
2018-09-19T00:41:47.617Z,21.05
2018-09-19T00:44:15.263Z,21.28
2018-09-19T00:46:42.814Z,21.05
2018-09-19T00:49:10.403Z,20.95
2018-09-19T00:51:37.934Z,21.10
2018-09-19T00:54:05.527Z,21.15
2018-09-19T00:56:33.148Z,20.98
2018-09-19T00:59:00.781Z,21.09
2018-09-19T01:01:28.372Z,20.97
2018-09-19T01:03:55.937Z,20.82
2018-09-19T01:06:23.476Z,20.83
2018-09-19T01:08:51.029Z,20.78
2018-09-19T01:11:19.763Z,20.65
2018-09-19T01:13:47.301Z,20.77
2018-09-19T01:16:14.858Z,20.72
2018-09-19T01:18:42.371Z,20.67
2018-09-19T01:21:09.965Z,20.44
2018-09-19T01:23:37.549Z,20.65
2018-09-19T01:26:05.080Z,20.55
2018-09-19T01:28:32.905Z,20.44
2018-09-19T01:31:00.765Z,20.49
2018-09-19T01:33:28.281Z,20.68
2018-09-19T01:35:55.847Z,20.71
2018-09-19T01:38:23.412Z,20.54
2018-09-19T01:40:50.927Z,20.69
2018-09-19T01:43:19.170Z,20.80
2018-09-19T01:45:46.737Z,20.94
2018-09-19T01:48:14.327Z,20.92
2018-09-19T01:50:41.899Z,21.12
2018-09-19T01:53:09.515Z,21.12
2018-09-19T01:55:37.064Z,21.06
2018-09-19T01:58:04.646Z,20.75
2018-09-19T02:00:32.858Z,20.86
2018-09-19T02:05:34.342Z,20.47
2018-09-19T02:08:01.872Z,20.40
2018-09-19T02:10:29.472Z,20.28
2018-09-19T02:12:57.053Z,20.31
2018-09-19T02:15:24.641Z,20.13
2018-09-19T02:17:52.213Z,20.03
2018-09-19T02:20:19.767Z,20.14
2018-09-19T02:22:47.285Z,20.06
2018-09-19T02:25:14.920Z,20.17
2018-09-19T02:27:42.583Z,20.25
2018-09-19T02:30:10.166Z,20.33
2018-09-19T02:32:37.880Z,20.15
2018-09-19T02:35:05.462Z,20.06
2018-09-19T02:37:33.871Z,20.29
2018-09-19T02:40:01.427Z,20.07
2018-09-19T02:42:28.944Z,20.30
2018-09-19T02:44:56.515Z,20.36
2018-09-19T02:47:24.099Z,20.10
2018-09-19T02:49:51.660Z,19.82
2018-09-19T02:52:19.195Z,19.98
2018-09-19T02:54:46.801Z,19.91
2018-09-19T02:57:14.333Z,19.93
2018-09-19T02:59:41.951Z,20.00
2018-09-19T03:02:09.485Z,20.00
2018-09-19T03:04:37.066Z,20.00
2018-09-19T03:07:04.613Z,19.91
2018-09-19T03:09:32.232Z,20.17
2018-09-19T03:11:59.809Z,20.31
2018-09-19T03:14:27.348Z,20.23
2018-09-19T03:16:55.972Z,20.15
2018-09-19T03:19:26.710Z,20.27
2018-09-19T03:21:54.241Z,20.37
2018-09-19T03:24:21.800Z,20.23
2018-09-19T03:26:49.426Z,20.15
2018-09-19T03:29:16.968Z,19.98
2018-09-19T03:31:44.561Z,20.12
2018-09-19T03:34:13.310Z,20.17
2018-09-19T03:36:40.895Z,19.91
2018-09-19T03:39:08.456Z,19.83
2018-09-19T03:41:36.055Z,19.82
2018-09-19T03:44:03.747Z,19.90
2018-09-19T03:46:31.271Z,19.66
2018-09-19T03:48:58.890Z,19.60
2018-09-19T03:51:26.551Z,19.63
2018-09-19T03:53:54.062Z,19.42
2018-09-19T03:56:21.663Z,19.34
2018-09-19T03:58:49.244Z,19.29
2018-09-19T04:01:16.825Z,19.49
2018-09-19T04:03:44.367Z,19.50
2018-09-19T04:06:11.921Z,19.53
2018-09-19T04:08:39.479Z,19.66
2018-09-19T04:11:06.994Z,19.69
2018-09-19T04:13:34.562Z,19.40
2018-09-19T04:16:02.118Z,19.38
2018-09-19T04:18:29.682Z,19.52
2018-09-19T04:20:57.195Z,19.60
2018-09-19T04:23:24.708Z,19.81
2018-09-19T04:25:52.264Z,19.77
2018-09-19T04:28:19.814Z,19.73
2018-09-19T04:30:47.374Z,19.83
2018-09-19T04:33:15.103Z,19.18
2018-09-19T04:35:42.676Z,19.25
2018-09-19T04:38:10.226Z,19.19
2018-09-19T04:40:37.800Z,19.22
2018-09-19T04:43:05.392Z,19.60
2018-09-19T04:45:32.942Z,19.63
2018-09-19T04:48:00.567Z,19.56
2018-09-19T04:50:28.109Z,19.76
2018-09-19T04:52:55.653Z,19.48
2018-09-19T04:55:23.417Z,19.36
2018-09-19T04:57:50.941Z,19.53
2018-09-19T05:00:18.524Z,19.72
2018-09-19T05:02:46.033Z,19.84
2018-09-19T05:05:13.599Z,19.77
2018-09-19T05:07:42.254Z,19.84
2018-09-19T05:10:09.855Z,19.88
2018-09-19T05:12:37.399Z,19.86
2018-09-19T05:15:04.997Z,19.96
2018-09-19T05:17:32.552Z,19.99
2018-09-19T05:20:00.271Z,19.91
2018-09-19T05:22:27.949Z,20.01
2018-09-19T05:24:55.501Z,20.09
2018-09-19T05:27:23.091Z,20.01
2018-09-19T05:29:50.616Z,20.03
2018-09-19T05:32:18.193Z,20.05
2018-09-19T05:34:45.723Z,20.06
2018-09-19T05:37:13.623Z,19.96
2018-09-19T05:39:41.770Z,20.09
2018-09-19T05:42:09.430Z,20.03
2018-09-19T05:44:37.193Z,20.11
2018-09-19T05:47:04.766Z,20.07
2018-09-19T05:49:32.357Z,19.99
2018-09-19T05:51:59.940Z,19.98
2018-09-19T05:54:27.571Z,20.11
2018-09-19T05:56:56.104Z,20.04
2018-09-19T05:59:23.697Z,20.01
2018-09-19T06:01:51.258Z,20.11
2018-09-19T06:04:18.905Z,20.13
2018-09-19T06:06:46.461Z,20.10
2018-09-19T06:09:13.986Z,19.87
2018-09-19T06:11:41.569Z,19.70
2018-09-19T06:14:09.105Z,19.88
2018-09-19T06:16:36.703Z,19.86
2018-09-19T06:19:04.262Z,20.03
2018-09-19T06:21:31.874Z,19.96
2018-09-19T06:23:59.374Z,19.97
2018-09-19T06:26:26.940Z,19.84
2018-09-19T06:28:54.459Z,20.01
2018-09-19T06:31:22.012Z,20.00
2018-09-19T06:33:49.555Z,20.06
2018-09-19T06:36:17.113Z,20.07
2018-09-19T06:38:44.669Z,20.00
2018-09-19T06:41:12.203Z,20.03
2018-09-19T06:43:39.760Z,19.94
2018-09-19T06:46:07.347Z,20.10
2018-09-19T06:48:34.923Z,20.14
2018-09-19T06:51:02.573Z,19.97
2018-09-19T06:53:30.099Z,20.10
2018-09-19T06:55:57.634Z,20.22
2018-09-19T06:58:25.204Z,20.35
2018-09-19T07:00:52.748Z,20.29
2018-09-19T07:03:20.319Z,20.44
2018-09-19T07:05:47.907Z,20.37
2018-09-19T07:08:15.439Z,20.50
2018-09-19T07:10:43.094Z,20.51
2018-09-19T07:13:10.589Z,20.47
2018-09-19T07:15:38.169Z,20.51
2018-09-19T07:18:05.874Z,20.51
2018-09-19T07:20:33.396Z,20.55
2018-09-19T07:23:00.951Z,20.66
2018-09-19T07:25:28.532Z,20.65
2018-09-19T07:27:56.094Z,20.80
2018-09-19T07:30:23.639Z,20.77
2018-09-19T07:32:51.268Z,20.99
2018-09-19T07:35:18.855Z,20.97
2018-09-19T07:37:46.403Z,20.95
2018-09-19T07:40:14.017Z,20.88
2018-09-19T07:42:41.545Z,21.04
2018-09-19T07:45:09.162Z,21.05
2018-09-19T07:47:36.677Z,21.03
2018-09-19T07:50:04.263Z,21.08
2018-09-19T07:52:31.797Z,21.20
2018-09-19T07:54:59.470Z,21.16
2018-09-19T07:57:27.023Z,21.11
2018-09-19T07:59:54.548Z,21.33
2018-09-19T08:02:22.147Z,21.36
2018-09-19T08:04:49.703Z,21.48
2018-09-19T08:07:17.281Z,21.57
2018-09-19T08:09:44.818Z,21.67
2018-09-19T08:12:12.396Z,21.79
2018-09-19T08:14:39.949Z,21.75
2018-09-19T08:17:07.474Z,21.86
2018-09-19T08:19:35.048Z,21.94
2018-09-19T08:22:02.614Z,21.93
2018-09-19T08:24:30.185Z,22.13
2018-09-19T08:26:57.716Z,22.21
2018-09-19T08:29:25.415Z,22.25
2018-09-19T08:31:52.986Z,22.18
2018-09-19T08:34:20.540Z,22.34
2018-09-19T08:36:48.107Z,22.22
2018-09-19T08:39:15.704Z,22.25
2018-09-19T08:41:45.399Z,22.40
2018-09-19T08:44:12.951Z,22.50
2018-09-19T08:46:40.484Z,22.57
2018-09-19T08:49:08.061Z,22.60
2018-09-19T08:51:35.604Z,22.61
2018-09-19T08:54:03.158Z,22.71
2018-09-19T08:56:30.724Z,22.73
2018-09-19T08:58:58.261Z,22.85
2018-09-19T09:01:25.831Z,22.83
2018-09-19T09:03:53.413Z,22.86
2018-09-19T09:06:21.102Z,22.89
2018-09-19T09:08:48.616Z,22.89
2018-09-19T09:11:16.401Z,23.02
2018-09-19T09:13:43.933Z,23.16
2018-09-19T09:16:11.569Z,23.22
2018-09-19T09:18:39.137Z,23.34
2018-09-19T09:21:06.695Z,23.49
2018-09-19T09:23:34.253Z,23.51
2018-09-19T09:26:01.859Z,23.61
2018-09-19T09:28:29.418Z,23.71
2018-09-19T09:30:56.986Z,23.82
2018-09-19T09:33:24.565Z,23.74
2018-09-19T09:35:52.080Z,23.76
2018-09-19T09:38:19.694Z,23.68
2018-09-19T09:40:47.226Z,23.74
2018-09-19T09:43:14.837Z,23.78
2018-09-19T09:45:42.348Z,23.91
2018-09-19T09:48:09.910Z,23.87
2018-09-19T09:50:37.449Z,24.05
2018-09-19T09:53:05.015Z,24.05
2018-09-19T09:55:32.639Z,24.13
2018-09-19T09:58:00.157Z,24.07
2018-09-19T10:00:27.710Z,24.01
2018-09-19T10:02:55.263Z,24.19
2018-09-19T10:05:22.830Z,24.31
2018-09-19T10:07:50.360Z,24.49
2018-09-19T10:10:17.932Z,24.55
2018-09-19T10:12:45.465Z,24.50
2018-09-19T10:15:13.043Z,24.49
2018-09-19T10:17:40.612Z,24.46
2018-09-19T10:20:08.125Z,24.67
2018-09-19T10:22:35.705Z,24.82
2018-09-19T10:25:03.233Z,24.85
2018-09-19T10:27:30.811Z,25.01
2018-09-19T10:29:58.405Z,25.08
2018-09-19T10:32:25.954Z,24.89
2018-09-19T10:34:53.663Z,24.91
2018-09-19T10:37:21.206Z,24.87
2018-09-19T10:39:48.787Z,25.06
2018-09-19T10:42:16.302Z,25.02
2018-09-19T10:44:43.866Z,24.83
2018-09-19T10:47:11.541Z,24.97
2018-09-19T10:49:39.098Z,24.98
2018-09-19T10:52:06.679Z,25.12
2018-09-19T10:54:34.186Z,25.11
2018-09-19T10:57:01.794Z,25.37
2018-09-19T10:59:29.294Z,25.29
2018-09-19T11:01:56.870Z,25.42
2018-09-19T11:04:24.480Z,25.44
2018-09-19T11:06:52.166Z,25.42
2018-09-19T11:09:19.682Z,25.32
2018-09-19T11:11:47.218Z,25.20
2018-09-19T11:14:14.875Z,25.26
2018-09-19T11:16:42.421Z,25.25
2018-09-19T11:19:09.999Z,25.15
2018-09-19T11:21:37.612Z,24.94
2018-09-19T11:24:05.189Z,25.21
2018-09-19T11:26:34.099Z,25.25
2018-09-19T11:29:01.737Z,25.14
2018-09-19T11:31:29.362Z,25.16
2018-09-19T11:33:57.019Z,25.11
2018-09-19T11:36:24.721Z,24.96
2018-09-19T11:38:52.297Z,25.12
2018-09-19T11:41:20.078Z,25.39
2018-09-19T11:43:47.861Z,25.60
2018-09-19T11:46:15.484Z,25.83
2018-09-19T11:48:43.365Z,26.05
2018-09-19T11:51:11.022Z,26.13
2018-09-19T11:53:38.741Z,25.99
2018-09-19T11:56:06.461Z,25.92
2018-09-19T11:58:34.033Z,25.86
2018-09-19T12:01:03.095Z,26.18
2018-09-19T12:03:30.771Z,26.35
2018-09-19T12:05:58.414Z,26.33
2018-09-19T12:08:26.035Z,26.31
2018-09-19T12:10:53.749Z,26.39
2018-09-19T12:13:21.281Z,26.38
2018-09-19T12:15:48.841Z,26.33
2018-09-19T12:18:16.393Z,26.54
2018-09-19T12:20:43.981Z,26.53
2018-09-19T12:23:11.486Z,26.61
2018-09-19T12:25:39.036Z,26.74
2018-09-19T12:28:06.620Z,26.70
2018-09-19T12:30:34.337Z,26.74
2018-09-19T12:33:01.948Z,26.87
2018-09-19T12:35:29.596Z,26.63
2018-09-19T12:37:57.161Z,26.80
2018-09-19T12:40:24.807Z,26.88
2018-09-19T12:42:52.401Z,27.00
2018-09-19T12:45:19.991Z,26.98
2018-09-19T12:47:47.557Z,27.09
2018-09-19T12:50:15.156Z,27.12
2018-09-19T12:52:42.717Z,27.05
2018-09-19T12:55:10.250Z,27.30
2018-09-19T12:57:37.827Z,27.20
2018-09-19T13:00:05.425Z,27.00
2018-09-19T13:02:33.225Z,27.31
2018-09-19T13:05:00.756Z,27.27
2018-09-19T13:07:28.336Z,27.37
2018-09-19T13:09:55.858Z,27.31
2018-09-19T13:12:23.376Z,27.52
2018-09-19T13:14:50.962Z,27.63
2018-09-19T13:17:18.540Z,27.66
2018-09-19T13:19:46.355Z,27.35
2018-09-19T13:22:14.001Z,27.65
2018-09-19T13:24:41.532Z,27.63
2018-09-19T13:27:09.122Z,27.50
2018-09-19T13:29:36.626Z,27.68
2018-09-19T13:32:04.212Z,27.81
2018-09-19T13:34:31.723Z,27.64
2018-09-19T13:36:59.230Z,27.69
2018-09-19T13:39:26.779Z,27.76
2018-09-19T13:41:54.317Z,27.76
2018-09-19T13:44:21.912Z,27.86
2018-09-19T13:46:49.491Z,27.67
2018-09-19T13:49:17.039Z,27.82
2018-09-19T13:51:44.575Z,27.90
2018-09-19T13:54:12.148Z,27.70
2018-09-19T13:56:39.673Z,27.59
2018-09-19T13:59:07.244Z,27.69
2018-09-19T14:01:34.764Z,28.04
2018-09-19T14:04:02.332Z,27.93
2018-09-19T14:06:29.880Z,27.86
2018-09-19T14:08:57.449Z,28.02
2018-09-19T14:11:25.017Z,28.04
2018-09-19T14:13:52.545Z,28.09
2018-09-19T14:16:20.100Z,27.69
2018-09-19T14:18:47.635Z,27.80
2018-09-19T14:21:15.197Z,27.70
2018-09-19T14:23:42.731Z,27.74
2018-09-19T14:26:10.292Z,27.70
2018-09-19T14:28:37.846Z,27.72
2018-09-19T14:31:05.364Z,27.62
2018-09-19T14:33:32.927Z,27.87
2018-09-19T14:36:00.499Z,27.99
2018-09-19T14:38:28.057Z,27.72
2018-09-19T14:40:55.890Z,27.89
2018-09-19T14:43:23.452Z,27.99
2018-09-19T14:45:51.012Z,28.25
2018-09-19T14:48:18.656Z,28.15
2018-09-19T14:50:46.245Z,28.08
2018-09-19T14:53:13.866Z,28.07
2018-09-19T14:55:41.528Z,28.18
2018-09-19T14:58:09.052Z,27.89
2018-09-19T15:00:36.666Z,27.78
2018-09-19T15:03:04.285Z,27.85
2018-09-19T15:05:31.867Z,27.42
2018-09-19T15:07:59.480Z,27.46
2018-09-19T15:10:27.071Z,27.63
2018-09-19T15:12:54.658Z,27.61
2018-09-19T15:15:22.194Z,27.52
2018-09-19T15:17:49.762Z,27.71
2018-09-19T15:20:17.329Z,27.70
2018-09-19T15:22:45.101Z,27.68
2018-09-19T15:25:12.696Z,27.74
2018-09-19T15:27:40.208Z,27.82
2018-09-19T15:30:07.743Z,28.06
2018-09-19T15:32:35.297Z,28.06
2018-09-19T15:35:02.964Z,27.98
2018-09-19T15:37:30.488Z,27.99
2018-09-19T15:39:58.019Z,28.15
2018-09-19T15:42:25.617Z,28.18
2018-09-19T15:44:53.216Z,28.17
2018-09-19T15:47:20.792Z,28.17
2018-09-19T15:49:48.353Z,28.14
2018-09-19T15:52:15.913Z,28.04
2018-09-19T15:54:43.485Z,28.00
2018-09-19T15:57:11.010Z,28.13
2018-09-19T15:59:38.601Z,28.17
2018-09-19T16:02:06.136Z,27.86
2018-09-19T16:04:33.658Z,27.72
2018-09-19T16:07:01.240Z,27.84
2018-09-19T16:09:29.026Z,27.65
2018-09-19T16:11:56.553Z,27.47
2018-09-19T16:14:24.241Z,27.48
2018-09-19T16:16:52.043Z,27.62
2018-09-19T16:19:19.582Z,27.68
2018-09-19T16:21:47.144Z,27.47
2018-09-19T16:24:14.690Z,27.55
2018-09-19T16:26:42.457Z,27.68
2018-09-19T16:29:09.980Z,27.60
2018-09-19T16:31:37.566Z,27.52
2018-09-19T16:34:05.118Z,27.37
2018-09-19T16:36:33.243Z,27.49
2018-09-19T16:39:00.823Z,27.35
2018-09-19T16:41:28.359Z,27.21
2018-09-19T16:43:55.920Z,27.05
2018-09-19T16:46:23.516Z,27.05
2018-09-19T16:48:51.049Z,26.80
2018-09-19T16:51:18.635Z,27.01
2018-09-19T16:53:46.153Z,27.00
2018-09-19T16:56:13.744Z,27.01
2018-09-19T16:58:41.296Z,26.76
2018-09-19T17:01:09.045Z,26.85
2018-09-19T17:03:36.812Z,26.63
2018-09-19T17:06:04.337Z,26.58
2018-09-19T17:08:32.040Z,26.63
2018-09-19T17:10:59.551Z,26.45
2018-09-19T17:13:27.140Z,26.19
2018-09-19T17:15:54.665Z,26.31
2018-09-19T17:18:22.203Z,26.11
2018-09-19T17:20:50.066Z,26.13
2018-09-19T17:23:17.675Z,26.07
2018-09-19T17:25:45.525Z,25.98
2018-09-19T17:28:13.079Z,25.71
2018-09-19T17:30:40.640Z,26.01
2018-09-19T17:33:08.195Z,25.79
2018-09-19T17:35:35.914Z,25.77
2018-09-19T17:38:03.451Z,25.92
2018-09-19T17:40:31.018Z,26.23
2018-09-19T17:42:58.519Z,26.12
2018-09-19T17:45:26.089Z,26.08
2018-09-19T17:47:53.609Z,26.02
2018-09-19T17:50:21.293Z,25.98
2018-09-19T17:52:49.028Z,25.76
2018-09-19T17:55:16.591Z,25.94
2018-09-19T17:57:44.288Z,25.84
2018-09-19T18:00:12.076Z,25.83
2018-09-19T18:02:39.806Z,25.52
2018-09-19T18:05:08.553Z,25.67
2018-09-19T18:07:36.075Z,25.56
2018-09-19T18:10:03.614Z,25.30
2018-09-19T18:12:34.272Z,25.42
2018-09-19T18:15:03.238Z,25.50
2018-09-19T18:17:30.800Z,25.30
2018-09-19T18:19:58.388Z,25.35
2018-09-19T18:22:25.967Z,25.33
2018-09-19T18:24:53.504Z,25.23
2018-09-19T18:27:21.058Z,24.87
2018-09-19T18:29:48.647Z,24.73
2018-09-19T18:32:16.179Z,24.76
2018-09-19T18:34:43.813Z,24.58
2018-09-19T18:37:11.367Z,24.60
2018-09-19T18:39:38.966Z,24.67
2018-09-19T18:42:06.485Z,24.35
2018-09-19T18:44:34.115Z,24.50
2018-09-19T18:47:01.697Z,24.42
2018-09-19T18:49:29.281Z,24.46
2018-09-19T18:51:56.807Z,24.15
2018-09-19T18:54:24.507Z,24.22
2018-09-19T18:56:52.047Z,24.13
2018-09-19T18:59:19.563Z,24.09
2018-09-19T19:01:47.202Z,24.20
2018-09-19T19:04:14.935Z,24.25
2018-09-19T19:06:42.480Z,24.26
2018-09-19T19:09:10.053Z,24.48
2018-09-19T19:11:37.636Z,24.62
2018-09-19T19:14:05.198Z,24.46
2018-09-19T19:16:33.212Z,24.47
2018-09-19T19:19:00.879Z,24.22
2018-09-19T19:21:28.592Z,24.32
2018-09-19T19:23:56.173Z,24.34
2018-09-19T19:26:23.750Z,24.43
2018-09-19T19:28:51.255Z,24.22
2018-09-19T19:31:18.815Z,24.12
2018-09-19T19:33:46.341Z,24.11
2018-09-19T19:36:13.889Z,23.74
2018-09-19T19:38:41.524Z,23.89
2018-09-19T19:41:09.053Z,23.61
2018-09-19T19:43:36.578Z,23.59
2018-09-19T19:46:04.159Z,23.79
2018-09-19T19:48:31.735Z,23.49
2018-09-19T19:50:59.343Z,23.36
2018-09-19T19:53:26.921Z,23.49
2018-09-19T19:55:54.431Z,23.66
2018-09-19T19:58:22.015Z,23.77
2018-09-19T20:00:50.480Z,23.57
2018-09-19T20:03:18.063Z,23.47
2018-09-19T20:05:45.654Z,23.25
2018-09-19T20:08:13.234Z,23.55
2018-09-19T20:10:40.837Z,23.53
2018-09-19T20:13:08.467Z,23.36
2018-09-19T20:15:36.052Z,23.37
2018-09-19T20:18:03.876Z,23.33
2018-09-19T20:20:31.950Z,23.10
2018-09-19T20:23:00.211Z,23.23
2018-09-19T20:25:28.205Z,23.09
2018-09-19T20:27:56.339Z,23.19
2018-09-19T20:30:24.356Z,23.08
2018-09-19T20:32:52.310Z,23.13
2018-09-19T20:35:20.317Z,23.01
2018-09-19T20:37:48.311Z,23.09
2018-09-19T20:40:16.214Z,22.86
2018-09-19T20:42:43.989Z,22.95
2018-09-19T20:45:11.852Z,22.72
2018-09-19T20:47:39.570Z,22.41
2018-09-19T20:50:07.115Z,22.48
2018-09-19T20:52:34.835Z,22.28
2018-09-19T20:55:02.826Z,22.19
2018-09-19T20:57:30.715Z,22.10
2018-09-19T20:59:58.352Z,22.21
2018-09-19T21:02:26.146Z,22.24
2018-09-19T21:04:54.147Z,22.17
2018-09-19T21:07:21.732Z,22.16
2018-09-19T21:09:49.473Z,21.98
2018-09-19T21:12:17.026Z,22.20
2018-09-19T21:14:44.672Z,22.22
2018-09-19T21:17:12.378Z,22.17
2018-09-19T21:19:39.986Z,22.30
2018-09-19T21:22:07.676Z,22.15
2018-09-19T21:24:35.253Z,22.31
2018-09-19T21:27:02.908Z,22.41
2018-09-19T21:29:30.531Z,22.33
2018-09-19T21:31:58.066Z,22.26
2018-09-19T21:34:25.694Z,22.06
2018-09-19T21:36:53.332Z,22.14
2018-09-19T21:39:21.061Z,22.00
2018-09-19T21:41:48.638Z,21.84
2018-09-19T21:44:16.183Z,22.01
2018-09-19T21:46:43.735Z,21.84
2018-09-19T21:49:11.342Z,21.82
2018-09-19T21:51:38.859Z,21.34
2018-09-19T21:54:06.435Z,21.69
2018-09-19T21:56:34.003Z,21.68
2018-09-19T21:59:01.567Z,21.55
2018-09-19T22:01:29.131Z,21.57
2018-09-19T22:03:56.715Z,21.64
2018-09-19T22:06:24.446Z,21.56
2018-09-19T22:08:52.036Z,21.64
2018-09-19T22:11:19.626Z,21.56
2018-09-19T22:13:47.232Z,21.49
2018-09-19T22:16:14.827Z,21.59
2018-09-19T22:18:42.348Z,21.59
2018-09-19T22:21:10.072Z,21.60
2018-09-19T22:23:37.802Z,21.30
2018-09-19T22:26:05.369Z,21.27
2018-09-19T22:28:33.419Z,21.26
2018-09-19T22:31:01.137Z,21.05
2018-09-19T22:33:28.747Z,21.14
2018-09-19T22:35:56.376Z,20.93
2018-09-19T22:38:23.930Z,20.88
2018-09-19T22:40:51.516Z,20.91
2018-09-19T22:43:19.057Z,21.00
2018-09-19T22:45:46.900Z,20.73
2018-09-19T22:48:14.563Z,21.18
2018-09-19T22:50:42.322Z,20.96
2018-09-19T22:53:10.123Z,21.09
2018-09-19T22:55:37.731Z,21.06
2018-09-19T22:58:05.349Z,21.03
2018-09-19T23:00:33.421Z,21.26
2018-09-19T23:03:00.955Z,21.44
2018-09-19T23:05:28.539Z,21.25
2018-09-19T23:07:56.103Z,21.22
2018-09-19T23:10:23.629Z,21.03
2018-09-19T23:12:51.446Z,20.94
2018-09-19T23:15:19.076Z,20.82
2018-09-19T23:17:46.683Z,20.80
2018-09-19T23:20:14.268Z,20.61
2018-09-19T23:22:41.815Z,20.81
2018-09-19T23:25:09.400Z,20.80
2018-09-19T23:27:36.978Z,20.88
2018-09-19T23:30:04.546Z,20.97
2018-09-19T23:32:32.203Z,20.88
2018-09-19T23:34:59.786Z,20.83
2018-09-19T23:37:27.305Z,20.78
2018-09-19T23:39:54.851Z,20.99
2018-09-19T23:42:22.391Z,20.79
2018-09-19T23:44:49.954Z,20.60
2018-09-19T23:47:17.508Z,20.61
2018-09-19T23:49:45.088Z,20.68
2018-09-19T23:52:12.639Z,20.48
2018-09-19T23:54:40.207Z,20.70
2018-09-19T23:57:07.807Z,20.66
2018-09-19T23:59:35.354Z,20.81
